Time;durP1;ratioP1;P1;durP2;ratioP2;P2;SDS_P1;SDS_P2;PMS_P1;PMS_P2;Temp;Humidity;BMP_temperature;BMP_pressure;BME280_temperature;BME280_humidity;BME280_pressure;Samples;Min_cycle;Max_cycle;Signal;HPM_P1;HPM_P2
2022/06/02 00:00:06;;;;;;;8.45;7.28;;;7.00;99.90;;;;;;5034579;28;20048;-42
2022/06/02 00:03:09;;;;;;;13.15;10.13;;;7.00;99.90;;;;;;5034498;28;20040;-43
2022/06/02 00:05:59;;;;;;;10.73;7.40;;;7.00;99.90;;;;;;5033365;28;20043;-47
2022/06/02 00:08:49;;;;;;;13.57;10.32;;;7.10;99.90;;;;;;5017475;28;20103;-43
2022/06/02 00:11:29;;;;;;;14.82;11.00;;;7.00;99.90;;;;;;5033440;28;20151;-44
2022/06/02 00:14:17;;;;;;;12.32;8.40;;;7.20;99.90;;;;;;5033767;28;20059;-44
2022/06/02 00:17:15;;;;;;;10.80;7.32;;;7.00;99.90;;;;;;5050459;28;20056;-44
2022/06/02 00:19:59;;;;;;;9.35;7.18;;;7.10;99.90;;;;;;4990891;28;20057;-47
2022/06/02 00:22:56;;;;;;;11.48;8.10;;;6.90;99.90;;;;;;5007843;28;20060;-44
2022/06/02 00:25:35;;;;;;;14.45;8.88;;;6.80;99.90;;;;;;4969366;28;20092;-47
2022/06/02 00:28:06;;;;;;;10.77;8.40;;;6.80;99.90;;;;;;4954492;28;20132;-45
2022/06/02 00:30:41;;;;;;;8.77;6.55;;;6.60;99.90;;;;;;4986898;28;20053;-44
2022/06/02 00:33:46;;;;;;;10.68;7.65;;;6.70;99.90;;;;;;4955849;28;20061;-46
2022/06/02 00:36:27;;;;;;;11.45;9.20;;;6.70;99.90;;;;;;4955562;28;20108;-44
2022/06/02 00:38:59;;;;;;;11.18;8.10;;;7.70;99.90;;;;;;4955308;28;20316;-46
2022/06/02 00:41:48;;;;;;;11.48;8.80;;;6.50;99.90;;;;;;4988801;28;20186;-42
2022/06/02 00:44:29;;;;;;;7.05;5.50;;;6.50;99.90;;;;;;4986789;28;20180;-41
2022/06/02 00:47:02;;;;;;;9.98;7.95;;;6.60;99.90;;;;;;4986973;28;20046;-43
2022/06/02 00:49:48;;;;;;;9.10;6.47;;;8.00;99.90;;;;;;4970971;28;20046;-42
2022/06/02 00:52:13;;;;;;;9.77;6.97;;;6.40;99.90;;;;;;4971091;28;21082;-42
2022/06/02 00:58:09;;;;;;;9.32;7.78;;;6.40;99.90;;;;;;5052553;28;20060;-43
2022/06/02 01:00:49;;;;;;;10.55;8.20;;;6.30;99.90;;;;;;5051465;28;20078;-42
2022/06/02 01:03:22;;;;;;;11.95;9.25;;;6.60;99.90;;;;;;5052471;28;20102;-44
2022/06/02 01:06:23;;;;;;;10.57;8.07;;;6.90;99.90;;;;;;5051849;28;20047;-42
2022/06/02 01:08:58;;;;;;;10.10;8.15;;;6.30;99.90;;;;;;5034981;28;20044;-42
2022/06/02 01:11:46;;;;;;;14.52;11.55;;;6.30;99.90;;;;;;5051781;28;20090;-44
2022/06/02 01:14:41;;;;;;;18.52;15.02;;;6.30;99.90;;;;;;5069043;28;20498;-43
2022/06/02 01:17:20;;;;;;;14.45;12.38;;;6.40;99.90;;;;;;5051937;28;20165;-42
2022/06/02 01:20:05;;;;;;;22.30;14.75;;;6.50;99.90;;;;;;5052484;28;20102;-41
2022/06/02 01:22:55;;;;;;;19.73;15.13;;;6.50;99.90;;;;;;5084168;28;20062;-42
2022/06/02 01:25:20;;;;;;;14.20;9.88;;;6.50;99.90;;;;;;5050394;28;20052;-41
2022/06/02 01:28:07;;;;;;;17.92;11.65;;;6.60;99.90;;;;;;5050261;28;20032;-44
2022/06/02 01:31:09;;;;;;;15.80;13.57;;;6.50;99.90;;;;;;5084138;28;20056;-41
2022/06/02 01:33:50;;;;;;;15.57;12.90;;;6.60;99.90;;;;;;5049457;28;20540;-45
2022/06/02 01:36:23;;;;;;;14.90;12.43;;;6.50;99.90;;;;;;5051017;28;20131;-42
2022/06/02 01:39:28;;;;;;;17.48;13.20;;;6.60;99.90;;;;;;5083674;28;20206;-43
2022/06/02 01:41:57;;;;;;;19.00;16.00;;;6.60;99.90;;;;;;5011029;28;20387;-42
2022/06/02 01:44:33;;;;;;;23.65;18.75;;;6.60;99.90;;;;;;4996600;28;20037;-42
2022/06/02 01:47:17;;;;;;;21.20;15.30;;;6.70;99.90;;;;;;5012090;28;20045;-43
2022/06/02 01:49:54;;;;;;;18.58;14.90;;;6.90;99.90;;;;;;5012628;28;20457;-42
2022/06/02 01:52:41;;;;;;;21.67;16.42;;;7.10;99.90;;;;;;5012446;28;20110;-42
2022/06/02 01:55:34;;;;;;;20.65;16.10;;;7.00;99.90;;;;;;4995892;28;20636;-43
2022/06/02 01:58:31;;;;;;;19.00;15.13;;;7.30;99.90;;;;;;5044578;28;20057;-42
2022/06/02 02:01:08;;;;;;;20.85;15.98;;;7.30;99.90;;;;;;4970745;28;20189;-49
2022/06/02 02:03:38;;;;;;;17.38;13.90;;;8.70;99.90;;;;;;4954415;28;20077;-47
2022/06/02 02:06:26;;;;;;;14.88;12.48;;;7.20;99.90;;;;;;4954407;28;20043;-45
2022/06/02 02:09:10;;;;;;;15.57;12.98;;;7.20;99.90;;;;;;4970834;28;20083;-43
2022/06/02 02:11:54;;;;;;;16.45;12.57;;;7.40;99.90;;;;;;4971056;28;20057;-43
2022/06/02 02:14:25;;;;;;;13.98;12.50;;;7.20;99.90;;;;;;4953561;28;20133;-43
2022/06/02 02:17:09;;;;;;;18.30;12.55;;;7.20;99.90;;;;;;4970737;28;20054;-42
2022/06/02 02:19:43;;;;;;;15.02;12.55;;;7.30;99.90;;;;;;4961165;28;20141;-42
2022/06/02 02:22:43;;;;;;;14.10;12.40;;;7.30;99.90;;;;;;4959636;28;20041;-44
2022/06/02 02:25:17;;;;;;;12.68;11.25;;;7.10;99.90;;;;;;4938956;28;20077;-47
2022/06/02 02:28:02;;;;;;;11.02;9.75;;;7.00;99.90;;;;;;4954821;28;20469;-45
2022/06/02 02:30:44;;;;;;;13.32;9.75;;;7.20;99.90;;;;;;4924260;28;20104;-43
2022/06/02 02:33:28;;;;;;;;;;;6.90;99.90;;;;;;4956804;28;20065;-44
2022/06/02 02:36:04;;;;;;;12.25;9.43;;;6.70;99.90;;;;;;4955164;28;19926;-43
2022/06/02 02:39:14;;;;;;;22.63;13.70;;;6.70;99.90;;;;;;4991763;28;20058;-44
2022/06/02 02:41:51;;;;;;;15.45;11.45;;;6.80;99.90;;;;;;5008156;28;20054;-43
2022/06/02 02:44:28;;;;;;;13.50;10.63;;;6.50;99.90;;;;;;5009855;28;20354;-42
2022/06/02 02:47:11;;;;;;;16.77;11.27;;;6.50;99.90;;;;;;5008112;28;20104;-44
2022/06/02 02:49:53;;;;;;;21.88;11.32;;;6.40;99.90;;;;;;4993158;28;20143;-44
2022/06/02 02:52:34;;;;;;;11.55;10.32;;;6.40;99.90;;;;;;5008281;28;20453;-43
2022/06/02 02:55:03;;;;;;;13.43;10.18;;;6.40;99.90;;;;;;4960401;28;20053;-43
2022/06/02 02:57:48;;;;;;;12.35;9.40;;;6.80;99.90;;;;;;5009226;28;20050;-45
2022/06/02 03:00:17;;;;;;;14.82;11.15;;;6.30;99.90;;;;;;4991455;28;20510;-42
2022/06/02 03:02:48;;;;;;;16.20;12.98;;;6.30;99.90;;;;;;5053758;28;20052;-42
2022/06/02 03:05:44;;;;;;;13.52;12.10;;;6.40;99.90;;;;;;5037058;28;20037;-44
2022/06/02 03:08:19;;;;;;;11.93;10.65;;;6.30;99.90;;;;;;5088253;28;20078;-42
2022/06/02 03:10:51;;;;;;;17.00;14.13;;;7.40;99.90;;;;;;5052693;28;20055;-44
2022/06/02 03:13:51;;;;;;;16.23;13.40;;;6.30;99.90;;;;;;5086799;28;20056;-42
2022/06/02 03:16:19;;;;;;;20.60;16.17;;;6.40;99.90;;;;;;5014510;28;20053;-44
2022/06/02 03:19:17;;;;;;;18.98;14.50;;;6.60;99.90;;;;;;5047401;28;20052;-44
2022/06/02 03:22:15;;;;;;;16.08;14.02;;;6.70;99.90;;;;;;5015138;28;20064;-43
2022/06/02 03:24:59;;;;;;;20.45;15.68;;;6.80;99.90;;;;;;5014375;28;20216;-45
2022/06/02 03:27:52;;;;;;;16.60;14.10;;;7.90;99.90;;;;;;4997387;28;20074;-45
2022/06/02 03:30:30;;;;;;;17.80;13.57;;;6.90;99.90;;;;;;4996765;28;20049;-41
2022/06/02 03:33:20;;;;;;;17.52;13.68;;;7.00;99.90;;;;;;5047468;28;20477;-45
2022/06/02 03:36:00;;;;;;;19.98;12.68;;;6.90;99.90;;;;;;5000023;28;20045;-42
2022/06/02 03:38:49;;;;;;;17.02;13.38;;;5.20;99.90;;;;;;5013858;28;20556;-42
2022/06/02 03:41:55;;;;;;;19.23;14.40;;;6.90;99.90;;;;;;5013761;28;20052;-42
2022/06/02 03:44:45;;;;;;;15.93;12.15;;;8.10;99.90;;;;;;4975113;28;20102;-42
2022/06/02 03:47:26;;;;;;;17.23;12.63;;;7.10;99.90;;;;;;4975905;28;20643;-41
2022/06/02 03:50:41;;;;;;;13.55;11.13;;;7.00;99.90;;;;;;5008399;28;20061;-42
2022/06/02 03:53:23;;;;;;;14.25;10.65;;;6.90;99.90;;;;;;4945936;28;20181;-42
2022/06/02 03:55:57;;;;;;;18.00;12.40;;;6.90;99.90;;;;;;4952971;28;20058;-42
2022/06/02 03:59:05;;;;;;;14.90;12.23;;;6.90;99.90;;;;;;4952452;28;20660;-41
2022/06/02 04:01:44;;;;;;;17.92;13.05;;;6.90;99.90;;;;;;4922954;28;20188;-42
2022/06/02 04:04:58;;;;;;;17.27;13.57;;;7.00;99.90;;;;;;4952660;28;20425;-42
2022/06/02 04:07:41;;;;;;;18.52;13.75;;;7.00;99.90;;;;;;4901009;29;20118;-42
2022/06/02 04:10:16;;;;;;;14.52;12.30;;;7.00;99.90;;;;;;4932213;29;20386;-44
2022/06/02 04:15:47;;;;;;;16.63;12.48;;;7.30;99.90;;;;;;4932485;29;20066;-42
2022/06/02 04:18:18;;;;;;;17.00;12.65;;;8.40;99.90;;;;;;4914809;29;20043;-41
2022/06/02 04:20:46;;;;;;;15.70;11.38;;;7.50;99.90;;;;;;4939559;28;20057;-42
2022/06/02 04:23:27;;;;;;;13.85;11.25;;;7.50;99.90;;;;;;4974759;28;20053;-42
2022/06/02 04:26:07;;;;;;;13.45;11.55;;;7.80;99.90;;;;;;4976175;28;20092;-42
2022/06/02 04:28:58;;;;;;;14.73;11.15;;;7.80;99.90;;;;;;5026542;28;20584;-42
2022/06/02 04:31:39;;;;;;;16.67;10.43;;;8.00;99.90;;;;;;4966977;28;20137;-42
2022/06/02 04:34:31;;;;;;;13.57;9.32;;;7.90;99.90;;;;;;4955046;28;20057;-43
2022/06/02 04:37:16;;;;;;;12.73;8.98;;;8.20;99.90;;;;;;4987961;28;20115;-41
2022/06/02 04:40:16;;;;;;;12.63;9.30;;;9.80;99.90;;;;;;4985774;28;20058;-44
2022/06/02 04:42:56;;;;;;;12.20;8.55;;;8.50;99.90;;;;;;4987541;28;20831;-43
2022/06/02 04:45:35;;;;;;;10.65;8.02;;;8.70;99.90;;;;;;4992914;28;20054;-43
2022/06/02 04:48:24;;;;;;;9.70;8.55;;;6.70;99.90;;;;;;5027934;28;20130;-42
2022/06/02 04:51:28;;;;;;;14.35;9.27;;;9.00;99.90;;;;;;4994280;28;20105;-43
2022/06/02 04:54:12;;;;;;;11.48;7.32;;;9.00;99.90;;;;;;5010328;28;20500;-42
2022/06/02 04:57:02;;;;;;;11.25;7.47;;;11.00;99.90;;;;;;4991799;28;20041;-43
2022/06/02 04:59:53;;;;;;;10.77;7.60;;;9.30;99.90;;;;;;5010685;28;20057;-44
2022/06/02 05:02:47;;;;;;;9.23;6.72;;;9.40;99.90;;;;;;4994744;28;20072;-42
2022/06/02 05:05:28;;;;;;;12.55;7.05;;;9.50;99.90;;;;;;4968319;28;20141;-44
2022/06/02 05:08:24;;;;;;;13.27;6.70;;;11.20;99.90;;;;;;4948551;28;20550;-42
2022/06/02 05:10:59;;;;;;;12.10;6.00;;;9.80;99.90;;;;;;4933516;28;20115;-46
2022/06/02 05:14:06;;;;;;;10.20;6.38;;;10.60;99.90;;;;;;4932734;28;20046;-43
2022/06/02 05:16:59;;;;;;;8.65;6.30;;;10.00;99.90;;;;;;4934122;28;20055;-43
2022/06/02 05:19:34;;;;;;;7.57;5.72;;;10.10;99.90;;;;;;4930450;28;20046;-44
2022/06/02 05:22:44;;;;;;;8.73;5.68;;;10.20;99.90;;;;;;4934611;28;20158;-44
2022/06/02 05:25:20;;;;;;;12.32;6.05;;;10.50;99.90;;;;;;4945790;28;20062;-43
2022/06/02 05:28:07;;;;;;;9.60;5.65;;;10.60;99.90;;;;;;4950690;28;20067;-44
2022/06/02 05:31:04;;;;;;;10.75;4.88;;;10.80;99.90;;;;;;4921219;29;20047;-42
2022/06/02 05:33:42;;;;;;;9.65;4.97;;;10.80;99.90;;;;;;4916006;29;20082;-44
2022/06/02 05:36:33;;;;;;;6.80;4.30;;;10.80;99.90;;;;;;4900186;29;20142;-43
2022/06/02 05:39:46;;;;;;;6.28;4.28;;;11.10;99.90;;;;;;4878538;29;20060;-41
2022/06/02 05:42:35;;;;;;;5.47;3.70;;;11.30;99.90;;;;;;4920935;28;20099;-43
2022/06/02 05:45:04;;;;;;;7.20;4.10;;;11.60;99.90;;;;;;4950116;28;20038;-41
2022/06/02 05:48:00;;;;;;;4.75;3.20;;;11.60;99.90;;;;;;4947996;28;20088;-42
2022/06/02 05:50:32;;;;;;;7.10;3.13;;;11.70;99.90;;;;;;4948127;28;20074;-43
2022/06/02 05:53:09;;;;;;;6.13;4.50;;;11.80;99.90;;;;;;4957746;28;20146;-44
2022/06/02 05:55:46;;;;;;;16.15;3.95;;;11.80;99.90;;;;;;4972047;28;20597;-43
2022/06/02 05:58:51;;;;;;;6.05;3.05;;;11.80;99.90;;;;;;4957994;28;20097;-43
2022/06/02 06:01:37;;;;;;;4.18;2.63;;;11.90;99.90;;;;;;4939181;28;20121;-46
2022/06/02 06:04:30;;;;;;;5.75;3.00;;;12.10;99.90;;;;;;4936735;28;20074;-44
2022/06/02 06:07:01;;;;;;;5.40;2.40;;;12.30;99.90;;;;;;4936076;28;20128;-52
2022/06/02 06:09:37;;;;;;;5.83;3.03;;;13.60;99.90;;;;;;4917211;28;20086;-45
2022/06/02 06:12:22;;;;;;;7.88;2.90;;;12.30;99.90;;;;;;4919544;29;20315;-46
2022/06/02 06:15:21;;;;;;;6.25;2.30;;;12.50;99.90;;;;;;4918389;29;20090;-45
2022/06/02 06:18:16;;;;;;;6.82;2.30;;;13.30;99.90;;;;;;4903371;29;20055;-42
2022/06/02 06:20:56;;;;;;;4.38;2.38;;;14.50;99.90;;;;;;4945397;28;20046;-41
2022/06/02 06:23:38;;;;;;;5.47;2.30;;;15.30;99.90;;;;;;4917638;29;20055;-42
2022/06/02 06:26:22;;;;;;;6.38;2.95;;;15.20;99.90;;;;;;4914798;29;20228;-43
2022/06/02 06:29:12;;;;;;;5.22;2.03;;;15.00;99.90;;;;;;4917357;29;20098;-43
2022/06/02 06:31:47;;;;;;;3.70;1.77;;;15.10;99.90;;;;;;4939722;28;20070;-43
2022/06/02 06:34:32;;;;;;;4.47;1.80;;;17.40;99.90;;;;;;4903282;29;20804;-49
2022/06/02 06:37:25;;;;;;;4.55;1.70;;;17.10;99.90;;;;;;4928340;29;20463;-42
2022/06/02 06:40:20;;;;;;;5.65;1.48;;;14.90;99.90;;;;;;4943036;28;20047;-43
2022/06/02 06:42:55;;;;;;;4.18;1.80;;;14.80;99.90;;;;;;4975930;28;20173;-41
2022/06/02 06:45:50;;;;;;;8.25;1.67;;;14.50;99.90;;;;;;4996057;28;20173;-41
2022/06/02 06:48:34;;;;;;;7.53;1.95;;;14.30;99.90;;;;;;4974483;28;20084;-41
2022/06/02 06:51:22;;;;;;;3.88;1.30;;;15.00;99.90;;;;;;5009256;28;20811;-50
2022/06/02 06:53:53;;;;;;;6.40;1.83;;;14.00;99.90;;;;;;5016352;28;20124;-47
2022/06/02 06:56:41;;;;;;;4.90;1.95;;;16.90;99.90;;;;;;5056688;28;20036;-43
2022/06/02 06:59:23;;;;;;;3.47;1.52;;;15.70;99.90;;;;;;5071725;28;20051;-44
2022/06/02 07:02:09;;;;;;;;;;;16.30;99.90;;;;;;5054656;28;20052;-44
2022/06/02 07:04:56;;;;;;;4.15;1.45;;;16.00;99.90;;;;;;4997185;28;19925;-46
2022/06/02 07:07:50;;;;;;;6.10;1.95;;;15.90;99.90;;;;;;5015873;28;20057;-43
2022/06/02 07:10:27;;;;;;;8.82;2.22;;;16.00;99.90;;;;;;4978033;28;20057;-45
2022/06/02 07:13:09;;;;;;;4.20;1.67;;;15.70;99.90;;;;;;4994286;28;20625;-48
2022/06/02 07:15:53;;;;;;;5.13;1.60;;;17.30;99.90;;;;;;5011335;28;20502;-43
2022/06/02 07:18:31;;;;;;;5.43;2.03;;;16.20;99.90;;;;;;5011533;28;20041;-47
2022/06/02 07:21:15;;;;;;;3.40;1.40;;;16.40;99.90;;;;;;5012652;28;20407;-46
2022/06/02 07:24:05;;;;;;;7.35;1.58;;;17.20;99.90;;;;;;4977977;28;20187;-46
2022/06/02 07:26:58;;;;;;;3.55;1.23;;;18.30;99.90;;;;;;4994407;28;20041;-44
2022/06/02 07:29:49;;;;;;;4.55;1.50;;;18.50;99.90;;;;;;4995948;28;20534;-47
2022/06/02 07:32:46;;;;;;;8.83;1.50;;;18.90;99.90;;;;;;4995939;28;20501;-47
2022/06/02 07:35:22;;;;;;;5.03;1.50;;;18.00;99.90;;;;;;4995094;28;20099;-48
2022/06/02 07:38:03;;;;;;;8.15;2.15;;;17.80;99.90;;;;;;4979684;28;20041;-48
2022/06/02 07:40:50;;;;;;;4.78;1.42;;;17.10;99.90;;;;;;4995845;28;20115;-46
2022/06/02 07:43:30;;;;;;;3.90;1.30;;;16.80;99.90;;;;;;5052473;28;20048;-45
2022/06/02 07:46:38;;;;;;;3.97;1.33;;;17.20;99.90;;;;;;5086720;28;21262;-43
2022/06/02 07:49:23;;;;;;;4.25;1.38;;;18.30;99.90;;;;;;5054737;28;20064;-46
2022/06/02 07:52:00;;;;;;;5.15;1.30;;;18.80;99.90;;;;;;5051909;28;20040;-45
2022/06/02 07:55:01;;;;;;;4.32;1.50;;;18.80;99.90;;;;;;5051752;28;20048;-47
2022/06/02 07:57:56;;;;;;;2.97;1.30;;;19.20;99.90;;;;;;5068753;28;20060;-49
2022/06/02 08:00:28;;;;;;;4.38;1.33;;;19.80;99.90;;;;;;5050962;28;20040;-46
2022/06/02 08:03:18;;;;;;;6.00;1.30;;;20.10;99.90;;;;;;5051453;28;20072;-48
2022/06/02 08:06:19;;;;;;;2.47;1.00;;;21.00;99.90;;;;;;5024831;28;21036;-49
2022/06/02 08:09:23;;;;;;;3.05;1.10;;;20.00;99.90;;;;;;5032626;28;20045;-43
2022/06/02 08:12:00;;;;;;;6.50;1.67;;;19.40;99.90;;;;;;4989797;28;20046;-46
2022/06/02 08:14:29;;;;;;;3.60;1.33;;;18.50;99.90;;;;;;4988291;28;20117;-44
2022/06/02 08:17:43;;;;;;;3.03;1.10;;;18.90;99.90;;;;;;4988847;28;20181;-44
2022/06/02 08:20:27;;;;;;;4.38;1.50;;;18.50;99.90;;;;;;4970833;28;20133;-45
2022/06/02 08:23:15;;;;;;;3.40;1.20;;;17.80;99.90;;;;;;4972636;28;20057;-45
2022/06/02 08:25:56;;;;;;;5.18;1.55;;;17.30;99.90;;;;;;4989050;28;20458;-45
2022/06/02 08:28:30;;;;;;;5.35;1.35;;;17.30;99.90;;;;;;4985344;28;20129;-45
2022/06/02 08:31:20;;;;;;;4.97;1.30;;;18.20;99.90;;;;;;4987607;28;20050;-45
2022/06/02 08:33:50;;;;;;;4.22;1.10;;;19.10;99.90;;;;;;4973297;28;20098;-46
2022/06/02 08:36:34;;;;;;;4.40;1.05;;;18.60;99.90;;;;;;4991464;28;20050;-45
2022/06/02 08:39:05;;;;;;;5.28;1.20;;;18.10;99.90;;;;;;4973126;28;20477;-48
2022/06/02 08:41:57;;;;;;;3.55;1.20;;;17.70;99.90;;;;;;4975900;28;20426;-46
2022/06/02 08:44:28;;;;;;;5.78;1.40;;;18.50;99.90;;;;;;4990756;28;20061;-44
2022/06/02 08:47:13;;;;;;;;;;;19.40;99.90;;;;;;5008198;28;20119;-44
2022/06/02 08:50:16;;;;;;;4.53;1.27;;;20.10;99.90;;;;;;5038018;28;19977;-49
2022/06/02 08:53:00;;;;;;;4.28;1.38;;;19.90;99.90;;;;;;5052650;28;20471;-45
2022/06/02 08:56:03;;;;;;;5.55;1.25;;;19.10;99.90;;;;;;5034822;28;20052;-47
2022/06/02 08:59:11;;;;;;;4.25;0.98;;;18.90;99.90;;;;;;5035632;28;20044;-46
2022/06/02 09:01:58;;;;;;;5.32;1.20;;;18.70;99.90;;;;;;5032943;28;20045;-48
2022/06/02 09:04:55;;;;;;;3.78;1.20;;;18.50;99.90;;;;;;5032700;28;20563;-46
2022/06/02 09:07:48;;;;;;;6.43;1.38;;;18.10;99.90;;;;;;5021134;28;20041;-47
2022/06/02 09:10:20;;;;;;;4.18;1.35;;;18.00;99.90;;;;;;5016505;28;20059;-48
2022/06/02 09:12:55;;;;;;;4.88;1.15;;;18.00;99.90;;;;;;5048163;28;20059;-45
2022/06/02 09:16:00;;;;;;;4.57;1.20;;;18.50;99.90;;;;;;5014636;28;20044;-47
2022/06/02 09:19:00;;;;;;;5.05;1.30;;;18.70;99.90;;;;;;5031784;28;20389;-46
2022/06/02 09:21:34;;;;;;;5.18;1.42;;;19.50;99.90;;;;;;5033050;28;20128;-48
2022/06/02 09:24:22;;;;;;;4.35;1.50;;;19.40;99.90;;;;;;5015652;28;20162;-47
2022/06/02 09:26:59;;;;;;;3.35;1.23;;;18.70;99.90;;;;;;5024796;28;20052;-45
2022/06/02 09:29:42;;;;;;;3.72;1.52;;;18.10;99.90;;;;;;5035777;28;20098;-46
2022/06/02 09:32:37;;;;;;;5.03;1.40;;;17.80;99.90;;;;;;5036809;28;20056;-43
2022/06/02 09:35:22;;;;;;;4.13;1.70;;;17.50;99.90;;;;;;5052810;28;20052;-44
2022/06/02 09:38:03;;;;;;;2.22;1.10;;;18.10;99.90;;;;;;5036842;28;20557;-43
2022/06/02 09:40:41;;;;;;;4.97;1.80;;;18.30;99.90;;;;;;5088330;28;20556;-47
2022/06/02 09:43:47;;;;;;;4.38;1.45;;;18.80;99.90;;;;;;5053664;28;20055;-46
2022/06/02 09:46:52;;;;;;;2.95;1.20;;;19.10;99.90;;;;;;5054100;28;22552;-44
2022/06/02 09:49:56;;;;;;;4.63;1.45;;;18.70;99.90;;;;;;5037855;28;20993;-45
2022/06/02 09:52:47;;;;;;;4.00;1.50;;;18.40;99.90;;;;;;5038218;28;20082;-43
2022/06/02 09:55:37;;;;;;;3.58;1.50;;;17.80;99.90;;;;;;5034995;28;20102;-45
2022/06/02 09:58:12;;;;;;;3.65;1.50;;;17.90;99.90;;;;;;5018955;28;20041;-47
2022/06/02 10:00:49;;;;;;;3.50;1.38;;;18.30;99.90;;;;;;5018213;28;20049;-44
2022/06/02 10:03:46;;;;;;;4.07;1.40;;;18.70;99.90;;;;;;5035366;28;20037;-44
2022/06/02 10:06:33;;;;;;;2.92;1.40;;;18.80;99.90;;;;;;5035220;28;20064;-46
2022/06/02 10:09:06;;;;;;;4.43;1.30;;;18.90;99.90;;;;;;5035981;28;20076;-46
2022/06/02 10:11:56;;;;;;;3.85;1.58;;;18.40;99.90;;;;;;5034965;28;20033;-47
2022/06/02 10:15:03;;;;;;;6.68;1.60;;;18.20;99.90;;;;;;5035748;28;20037;-44
2022/06/02 10:17:43;;;;;;;4.35;1.58;;;17.00;99.90;;;;;;5053136;28;22089;-45
2022/06/02 10:20:38;;;;;;;4.90;1.73;;;18.10;99.90;;;;;;5068731;28;20060;-46
2022/06/02 10:23:37;;;;;;;5.28;1.58;;;18.00;99.90;;;;;;5033403;28;20087;-45
2022/06/02 10:26:33;;;;;;;4.68;1.52;;;18.20;99.90;;;;;;5013999;28;20053;-47
2022/06/02 10:29:04;;;;;;;5.82;1.60;;;18.60;99.90;;;;;;5015069;28;20095;-47
2022/06/02 10:31:49;;;;;;;4.60;1.48;;;18.70;99.90;;;;;;5011340;28;20104;-47
2022/06/02 10:34:39;;;;;;;2.63;1.10;;;19.00;99.90;;;;;;4996539;28;20045;-49
2022/06/02 10:37:23;;;;;;;4.88;1.80;;;19.40;99.90;;;;;;4996866;28;20056;-46
2022/06/02 10:40:01;;;;;;;3.08;1.40;;;19.50;99.90;;;;;;5027439;28;20136;-46
2022/06/02 10:42:32;;;;;;;5.45;1.42;;;19.30;99.90;;;;;;4979868;28;20108;-48
2022/06/02 10:45:27;;;;;;;5.85;1.30;;;18.60;99.90;;;;;;4996239;28;20136;-44
2022/06/02 10:48:26;;;;;;;3.97;1.42;;;18.40;99.90;;;;;;5011779;28;20262;-44
2022/06/02 10:51:34;;;;;;;3.47;1.50;;;18.20;99.90;;;;;;5028488;28;20127;-47
2022/06/02 10:54:36;;;;;;;5.00;1.50;;;17.80;99.90;;;;;;5010952;28;20684;-46
2022/06/02 10:57:20;;;;;;;4.22;1.48;;;17.60;99.90;;;;;;5027954;28;20054;-47
2022/06/02 11:00:18;;;;;;;1.85;1.20;;;17.50;99.90;;;;;;5062187;28;20084;-45
2022/06/02 11:03:12;;;;;;;4.05;1.45;;;18.10;99.90;;;;;;5053172;28;20725;-44
2022/06/02 11:06:04;;;;;;;4.32;1.50;;;18.60;99.90;;;;;;5085157;28;20412;-44
2022/06/02 11:08:48;;;;;;;2.13;1.15;;;18.70;99.90;;;;;;5051972;28;20052;-46
2022/06/02 11:11:39;;;;;;;2.63;1.30;;;18.60;99.90;;;;;;5033412;28;20041;-45
2022/06/02 11:14:35;;;;;;;3.60;1.20;;;19.00;99.90;;;;;;5017693;28;20159;-44
2022/06/02 11:17:25;;;;;;;4.55;1.50;;;18.90;99.90;;;;;;5068363;28;20402;-46
2022/06/02 11:20:06;;;;;;;3.53;1.40;;;18.80;99.90;;;;;;5017595;28;20056;-48
2022/06/02 11:22:50;;;;;;;2.30;1.40;;;19.30;99.90;;;;;;5033751;28;20103;-49
2022/06/02 11:25:39;;;;;;;4.35;1.35;;;19.30;99.90;;;;;;5036600;28;20113;-46
2022/06/02 11:28:32;;;;;;;3.47;1.50;;;19.00;99.90;;;;;;5035827;28;20113;-45
2022/06/02 11:31:29;;;;;;;3.42;1.60;;;18.80;99.90;;;;;;5016686;28;20064;-49
2022/06/02 11:34:23;;;;;;;6.95;1.40;;;18.60;99.90;;;;;;5014803;28;20048;-45
2022/06/02 11:37:07;;;;;;;4.20;1.70;;;18.20;99.90;;;;;;4937399;28;20534;-47
2022/06/02 11:39:55;;;;;;;3.72;1.63;;;18.10;99.90;;;;;;4951335;28;20055;-45
2022/06/02 11:42:50;;;;;;;5.03;1.42;;;17.60;99.90;;;;;;4967304;28;20086;-50
2022/06/02 11:45:16;;;;;;;5.55;1.73;;;17.50;99.90;;;;;;4952135;28;21388;-45
2022/06/02 11:48:30;;;;;;;4.72;1.65;;;17.40;99.90;;;;;;4935597;28;20097;-47
2022/06/02 11:51:13;;;;;;;4.55;1.55;;;17.30;99.90;;;;;;4948689;28;20110;-47
2022/06/02 11:53:47;;;;;;;4.15;1.40;;;17.40;99.90;;;;;;4933132;28;20114;-48
2022/06/02 11:56:43;;;;;;;4.50;1.42;;;18.40;99.90;;;;;;4935009;28;20063;-49
2022/06/02 11:59:46;;;;;;;3.17;1.33;;;18.30;99.90;;;;;;4933624;28;20066;-50
2022/06/02 12:02:23;;;;;;;3.58;1.55;;;18.60;99.90;;;;;;4950282;28;20051;-47
2022/06/02 12:05:17;;;;;;;3.08;1.40;;;18.40;99.90;;;;;;4916549;29;20043;-48
2022/06/02 12:08:11;;;;;;;3.75;1.40;;;18.20;99.90;;;;;;4919049;28;20385;-47
2022/06/02 12:10:56;;;;;;;5.40;1.30;;;18.50;99.90;;;;;;4932441;28;20051;-45
2022/06/02 12:13:53;;;;;;;4.28;1.40;;;18.20;99.90;;;;;;4965996;28;20731;-44
2022/06/02 12:16:24;;;;;;;7.93;1.70;;;18.10;99.90;;;;;;4973777;28;20046;-44
2022/06/02 12:19:29;;;;;;;2.72;1.30;;;18.20;99.90;;;;;;4972609;28;20050;-46
2022/06/02 12:22:26;;;;;;;2.78;1.10;;;18.60;99.90;;;;;;4952147;28;20185;-46
2022/06/02 12:25:01;;;;;;;5.25;1.60;;;17.90;99.90;;;;;;4951048;28;20077;-48
2022/06/02 12:27:57;;;;;;;3.55;1.30;;;18.20;99.90;;;;;;4946307;28;20149;-47
2022/06/02 12:31:15;;;;;;;3.58;1.55;;;17.90;99.90;;;;;;4916736;29;20552;-44
2022/06/02 12:33:53;;;;;;;2.72;1.25;;;18.40;99.90;;;;;;4915791;28;20136;-48
2022/06/02 12:36:27;;;;;;;3.88;1.42;;;18.60;99.90;;;;;;4932082;28;20484;-47
2022/06/02 12:39:21;;;;;;;3.38;1.23;;;18.60;99.90;;;;;;4934103;28;20062;-46
2022/06/02 12:42:27;;;;;;;3.95;1.38;;;18.90;99.90;;;;;;4932211;28;20229;-49
2022/06/02 12:45:35;;;;;;;3.22;1.40;;;19.20;99.90;;;;;;4896093;29;20074;-45
2022/06/02 12:48:49;;;;;;;4.95;1.48;;;19.50;99.90;;;;;;4910141;29;20052;-46
2022/06/02 12:51:38;;;;;;;3.97;1.30;;;19.90;99.90;;;;;;4909470;29;20992;-44
2022/06/02 12:54:04;;;;;;;3.05;1.17;;;20.10;99.90;;;;;;4894499;29;20063;-44
2022/06/02 12:56:47;;;;;;;3.38;1.60;;;19.30;99.90;;;;;;4895624;29;21082;-46
2022/06/02 12:59:57;;;;;;;4.53;1.50;;;19.00;99.90;;;;;;4895961;29;20058;-45
2022/06/02 13:02:26;;;;;;;4.95;1.75;;;18.50;99.90;;;;;;4873672;29;20048;-44
2022/06/02 13:05:12;;;;;;;5.32;1.25;;;19.30;99.90;;;;;;4892352;29;20064;-48
2022/06/02 13:08:16;;;;;;;1.60;1.10;;;18.20;99.90;;;;;;4895764;29;20060;-45
2022/06/02 13:11:26;;;;;;;3.90;1.33;;;18.20;99.90;;;;;;4891647;29;20044;-47
2022/06/02 13:14:34;;;;;;;2.75;1.27;;;18.00;99.90;;;;;;4892895;29;20056;-49
2022/06/02 13:17:26;;;;;;;3.33;1.30;;;17.90;99.90;;;;;;4860470;29;20613;-44
2022/06/02 13:20:08;;;;;;;6.40;1.55;;;18.30;99.90;;;;;;4836799;29;20053;-45
2022/06/02 13:22:37;;;;;;;3.63;1.35;;;18.50;99.90;;;;;;4871369;29;20064;-46
2022/06/02 13:25:06;;;;;;;3.55;1.40;;;18.90;99.90;;;;;;4879508;29;20647;-45
2022/06/02 13:27:50;;;;;;;3.20;1.30;;;19.20;99.90;;;;;;4878369;29;20055;-43
2022/06/02 13:30:37;;;;;;;4.10;1.20;;;19.50;99.90;;;;;;4878525;29;20055;-46
2022/06/02 13:33:21;;;;;;;3.42;1.35;;;19.80;99.90;;;;;;4879506;29;20064;-47
2022/06/02 13:36:24;;;;;;;3.70;1.33;;;19.80;99.90;;;;;;4879068;29;20047;-43
2022/06/02 13:39:34;;;;;;;2.45;1.10;;;19.80;99.90;;;;;;4899315;28;20568;-45
2022/06/02 13:42:18;;;;;;;3.42;1.33;;;19.40;99.90;;;;;;4917373;28;20054;-48
2022/06/02 13:45:02;;;;;;;3.22;1.27;;;19.20;99.90;;;;;;4948908;28;20086;-48
2022/06/02 13:47:36;;;;;;;5.50;1.27;;;19.00;99.90;;;;;;4934063;28;20910;-48
2022/06/02 13:50:31;;;;;;;2.83;1.10;;;19.10;99.90;;;;;;4951036;28;20058;-48
2022/06/02 13:53:20;;;;;;;3.58;1.10;;;19.40;99.90;;;;;;4921956;28;20077;-46
2022/06/02 13:59:03;;;;;;;4.18;1.40;;;19.60;99.90;;;;;;5010503;28;20060;-44
2022/06/02 14:01:47;;;;;;;2.55;1.17;;;19.70;99.90;;;;;;5029456;28;20057;-49
2022/06/02 14:04:40;;;;;;;2.70;1.30;;;19.80;99.90;;;;;;5012103;28;20050;-47
2022/06/02 14:07:50;;;;;;;5.95;1.30;;;19.80;99.90;;;;;;4994956;28;21459;-49
2022/06/02 14:10:31;;;;;;;2.72;1.20;;;19.70;99.90;;;;;;4934069;28;20527;-47
2022/06/02 14:13:19;;;;;;;1.83;0.93;;;19.60;99.90;;;;;;4951303;28;20085;-48
2022/06/02 14:16:13;;;;;;;3.83;1.30;;;19.70;99.90;;;;;;4955343;28;20508;-48
2022/06/02 14:18:49;;;;;;;5.53;1.38;;;19.60;99.90;;;;;;4896273;29;20048;-46
2022/06/02 14:21:46;;;;;;;2.53;1.15;;;19.50;99.90;;;;;;4912604;29;20052;-46
2022/06/02 14:24:50;;;;;;;5.03;1.40;;;18.80;99.90;;;;;;4933299;29;20066;-47
2022/06/02 14:27:38;;;;;;;7.03;1.40;;;18.40;99.90;;;;;;4878942;29;20185;-47
2022/06/02 14:30:16;;;;;;;4.45;1.45;;;18.40;99.90;;;;;;4878334;29;20099;-47
2022/06/02 14:32:54;;;;;;;4.13;1.17;;;18.80;99.90;;;;;;4864633;29;20108;-49
2022/06/02 14:35:42;;;;;;;2.90;1.33;;;18.90;99.90;;;;;;4888285;29;20056;-48